Aeroporto :
LOGIN :

Iscrizione | Disclaimer

   EN    FR    IT 

 










Sommario :    VFR   VFR Marginale   IFR   IFR Intensivo   IFR Molto Intensivo
Visibilità : 
Base nubi : 
>= 8 km
>= 3000ft
5 / 8 km
1000 / 3000 ft
1500m / 5 km
500 / 1000 ft
800 / 1500m
200 / 500 ft
< 800m
< 200 ft
Simboli :   Temporali  Nebbia  Neve Forte  Precipitazioni Forti  Vento > 20 kt
SIGMETs :   Varie  Temporali  Ghiacco  Turbolenza  Onda orograficha  Ceneri Vulcaniche






- Altitudine del aeroporto : 2767 ft


LTAE - Akıncı Air Base

ULTIMO METAR :
  • 250550Z 01005KT 350V050 9999 -SHRA BKN035 BKN090 15/14 Q1016 NOSIG RMK RWY21 02005KT

METARs OBSOLETI :
  • 250450Z 14002KT 9999 -SHRA BKN035 BKN090 15/14 Q1016 NOSIG RMK RWY21 16003KT
  • 250350Z 16004KT 120V190 9999 -SHRA BKN035 BKN090 15/14 Q1016 NOSIG RMK RWY21 16005KT 140V200

TAF TAF LTAE
Valido dal 25 a 06 ore il 25 a 15 ore UTC


250440Z 2506/2515 VRB02KT 9999 SCT040 SCT100
TEMPO 2506/2510 -SHRA BKN035 BKN090



MetMap, La meteo Aeronautica in un colpo d'occhio ! - Copyright ORBIFLY Dicembre 2007 - Disclaimer

ORBIFLY MET'MAP TEAM :

Programmazione e sviluppo : Alexandra Zaïnal
Concezione : Baudouin d'Aumeries
Aiuto per la programmazione : Marc-Olivier Méhu
Supporto tecnico e logistico : Manuel Goepfert
Aiuto per la traduzione : Arnaldo La Scala

Contatto : metmap@orbifly.com




FONTI E CREDITI :

   NOAA